Time;durP1;ratioP1;P1;durP2;ratioP2;P2;SDS_P1;SDS_P2;PMS_P1;PMS_P2;Temp;Humidity;BMP_temperature;BMP_pressure;BME280_temperature;BME280_humidity;BME280_pressure;Samples;Min_cycle;Max_cycle;Signal;HPM_P1;HPM_P2
2022/05/02 05:49:40;;;;;;;7.72;5.53;;;23.30;53.10;;;;;;5073442;27;21066;-69
2022/05/02 05:52:21;;;;;;;6.28;5.68;;;23.40;53.50;;;;;;5015564;28;20049;-71
2022/05/02 05:55:11;;;;;;;7.38;6.38;;;23.30;53.60;;;;;;4999479;28;20120;-69
2022/05/02 05:57:49;;;;;;;8.27;6.22;;;23.40;53.60;;;;;;5024547;28;20121;-70
2022/05/02 06:00:15;;;;;;;7.15;5.40;;;23.40;53.60;;;;;;4999960;28;20829;-69
2022/05/02 06:02:52;;;;;;;6.53;5.78;;;23.60;53.70;;;;;;4985060;28;20117;-69
2022/05/02 06:05:18;;;;;;;10.20;6.03;;;23.40;53.50;;;;;;4994695;28;20037;-70
2022/05/02 06:07:45;;;;;;;6.30;5.30;;;23.40;53.50;;;;;;4991247;28;20038;-69
2022/05/02 06:10:11;;;;;;;8.60;6.20;;;23.70;53.60;;;;;;4995587;28;20074;-69
2022/05/02 06:12:37;;;;;;;6.82;6.03;;;24.00;53.70;;;;;;5003844;28;20584;-69
2022/05/02 06:20:38;;;;;;;7.22;5.78;;;23.40;53.40;;;;;;5004638;28;20493;-69
2022/05/02 06:23:07;;;;;;;8.52;6.13;;;24.30;53.80;;;;;;5012904;28;20376;-69
2022/05/02 06:25:33;;;;;;;9.05;6.43;;;23.50;53.50;;;;;;5026172;28;20053;-68
2022/05/02 06:27:58;;;;;;;8.93;5.50;;;23.50;53.40;;;;;;5001671;28;20490;-69
2022/05/02 06:30:24;;;;;;;7.30;5.75;;;23.50;53.40;;;;;;4996444;28;20148;-68
2022/05/02 06:32:51;;;;;;;9.95;6.57;;;23.50;53.40;;;;;;4991972;28;20084;-69
2022/05/02 06:35:17;;;;;;;11.98;6.30;;;23.70;53.50;;;;;;4999661;28;20498;-69
2022/05/02 06:38:12;;;;;;;10.00;6.32;;;23.50;53.40;;;;;;5001543;28;20447;-69
2022/05/02 06:40:58;;;;;;;6.85;6.13;;;23.50;53.30;;;;;;5014806;28;20038;-69
2022/05/02 06:43:40;;;;;;;7.57;5.82;;;23.50;53.40;;;;;;5001373;28;20061;-69
2022/05/02 06:46:09;;;;;;;11.18;6.30;;;23.50;53.50;;;;;;4983433;28;20419;-69
2022/05/02 06:48:42;;;;;;;11.45;6.65;;;23.60;53.50;;;;;;4971620;28;20050;-70
2022/05/02 06:51:13;;;;;;;9.10;6.63;;;23.60;53.50;;;;;;4995804;28;20471;-67
2022/05/02 06:54:18;;;;;;;6.68;5.50;;;23.60;53.50;;;;;;5009886;28;20042;-71
2022/05/02 06:56:48;;;;;;;15.73;6.93;;;23.60;53.50;;;;;;4999505;28;20076;-68
2022/05/02 06:59:28;;;;;;;11.73;6.25;;;23.60;53.50;;;;;;4989316;28;20034;-71
2022/05/02 07:02:12;;;;;;;12.93;6.40;;;23.60;53.50;;;;;;4996948;28;20129;-71
2022/05/02 07:04:50;;;;;;;13.02;6.53;;;23.60;53.50;;;;;;4991868;28;20030;-67
2022/05/02 07:07:30;;;;;;;10.18;6.35;;;23.60;53.50;;;;;;4990189;28;20515;-69
2022/05/02 07:10:08;;;;;;;12.73;6.82;;;23.60;53.60;;;;;;4988141;28;20030;-71
2022/05/02 07:12:38;;;;;;;10.25;6.65;;;23.60;53.50;;;;;;4967397;28;20030;-70
2022/05/02 07:15:14;;;;;;;11.93;6.38;;;23.60;53.40;;;;;;4969929;28;20121;-68
2022/05/02 07:17:42;;;;;;;8.43;6.38;;;24.30;53.80;;;;;;4983351;28;20046;-69
2022/05/02 07:20:17;;;;;;;12.48;6.30;;;23.60;53.50;;;;;;4976855;28;20034;-68
2022/05/02 07:22:43;;;;;;;10.45;6.53;;;23.70;53.50;;;;;;4985758;28;20034;-69
2022/05/02 07:25:13;;;;;;;11.52;6.35;;;23.70;53.60;;;;;;4998032;28;20608;-68
2022/05/02 07:27:53;;;;;;;13.52;6.82;;;23.70;53.50;;;;;;4981069;28;20045;-68
2022/05/02 07:30:21;;;;;;;13.30;6.25;;;23.60;53.50;;;;;;4982968;28;20034;-67
2022/05/02 07:32:47;;;;;;;13.05;6.43;;;23.70;53.50;;;;;;4981706;28;20030;-68
2022/05/02 07:35:14;;;;;;;15.25;7.03;;;23.70;53.50;;;;;;4981312;28;20031;-71
2022/05/02 07:37:39;;;;;;;15.45;6.55;;;23.70;53.50;;;;;;4998445;28;20106;-69
2022/05/02 07:40:05;;;;;;;9.70;6.57;;;23.70;53.50;;;;;;5016721;28;20378;-68
2022/05/02 07:42:31;;;;;;;11.80;6.47;;;23.80;53.50;;;;;;4983567;28;20042;-67
2022/05/02 07:44:56;;;;;;;16.40;6.53;;;23.80;53.40;;;;;;5017147;28;20467;-68
2022/05/02 07:47:22;;;;;;;14.05;6.60;;;23.80;53.30;;;;;;5014384;28;20114;-67
2022/05/02 07:49:48;;;;;;;13.63;7.32;;;23.80;53.20;;;;;;5017353;28;20027;-67
2022/05/02 07:52:35;;;;;;;10.75;6.82;;;23.80;53.10;;;;;;4983952;28;20041;-67
2022/05/02 07:55:01;;;;;;;12.40;6.97;;;23.80;53.10;;;;;;4987802;28;20171;-68
2022/05/02 07:57:27;;;;;;;12.30;7.15;;;23.90;53.10;;;;;;5000494;28;20031;-68
2022/05/02 07:59:56;;;;;;;14.43;7.68;;;23.90;53.10;;;;;;4996557;28;20076;-67
2022/05/02 08:02:22;;;;;;;13.60;8.73;;;23.90;53.00;;;;;;4984880;28;20057;-68
2022/05/02 08:04:47;;;;;;;12.18;8.23;;;23.90;53.00;;;;;;4991721;28;20026;-70
2022/05/02 08:07:22;;;;;;;11.85;8.07;;;24.30;53.10;;;;;;4983271;28;20057;-71
2022/05/02 08:09:54;;;;;;;14.82;8.57;;;23.90;52.90;;;;;;5000288;28;20163;-67
2022/05/02 08:12:33;;;;;;;13.27;8.27;;;23.90;52.80;;;;;;4990082;28;20058;-68
2022/05/02 08:15:07;;;;;;;15.88;7.95;;;23.90;52.80;;;;;;5016458;28;20061;-71
2022/05/02 08:18:03;;;;;;;15.02;7.95;;;24.00;52.70;;;;;;4982918;28;20038;-67
2022/05/02 08:20:59;;;;;;;12.95;8.77;;;23.60;52.40;;;;;;4983885;28;20640;-68
2022/05/02 08:27:15;;;;;;;14.02;7.95;;;24.00;52.40;;;;;;4982682;28;20221;-68
2022/05/02 08:30:04;;;;;;;13.23;8.25;;;24.10;52.40;;;;;;4984265;28;20160;-68
2022/05/02 08:32:51;;;;;;;16.63;8.52;;;24.10;52.10;;;;;;4972407;28;20030;-69
2022/05/02 08:35:18;;;;;;;12.50;8.40;;;24.20;52.10;;;;;;4984492;28;20038;-66
2022/05/02 08:37:46;;;;;;;12.70;7.70;;;24.10;52.10;;;;;;4993655;28;20609;-67
2022/05/02 08:40:24;;;;;;;15.15;8.60;;;24.80;52.30;;;;;;4984660;28;20054;-67
2022/05/02 08:43:17;;;;;;;11.10;7.82;;;24.20;51.90;;;;;;4982627;28;20037;-68
2022/05/02 08:45:54;;;;;;;12.32;7.55;;;24.20;52.00;;;;;;4999587;28;20034;-66
2022/05/02 08:52:23;;;;;;;13.10;8.15;;;24.30;51.80;;;;;;4984904;28;20046;-67
2022/05/02 08:54:58;;;;;;;12.20;7.75;;;24.30;51.80;;;;;;4973348;28;20330;-67
2022/05/02 08:57:34;;;;;;;;;;;24.30;51.80;;;;;;4985197;28;20042;-68
2022/05/02 09:00:09;;;;;;;11.77;7.97;;;24.40;51.80;;;;;;4983162;28;19914;-69
2022/05/02 09:03:02;;;;;;;11.13;8.07;;;24.30;51.70;;;;;;4984230;28;20038;-68
2022/05/02 09:05:52;;;;;;;12.63;8.27;;;24.30;51.50;;;;;;4994139;28;20032;-67
2022/05/02 09:08:55;;;;;;;12.25;8.30;;;24.30;51.70;;;;;;4964999;28;20428;-70
2022/05/02 09:11:50;;;;;;;13.40;8.27;;;24.40;51.70;;;;;;4970387;28;20467;-68
2022/05/02 09:14:44;;;;;;;11.40;7.43;;;24.40;51.60;;;;;;4980974;28;20450;-68
2022/05/02 09:17:40;;;;;;;12.65;7.40;;;24.40;51.50;;;;;;4984058;28;20060;-67
2022/05/02 09:20:24;;;;;;;11.48;7.40;;;24.40;51.60;;;;;;4981488;28;20719;-70
2022/05/02 09:23:15;;;;;;;12.32;8.07;;;25.40;52.10;;;;;;4982889;28;20026;-68
2022/05/02 09:26:05;;;;;;;10.77;7.22;;;24.60;51.50;;;;;;4996975;28;20065;-67
2022/05/02 09:29:05;;;;;;;12.88;7.90;;;24.60;51.50;;;;;;4983106;28;20081;-68
2022/05/02 09:31:31;;;;;;;12.40;7.25;;;24.60;51.50;;;;;;5014818;28;20098;-70
2022/05/02 09:34:17;;;;;;;10.63;7.00;;;24.70;51.50;;;;;;4965524;28;20034;-68
2022/05/02 09:36:53;;;;;;;12.10;7.50;;;24.60;51.40;;;;;;4983668;28;20034;-67
2022/05/02 09:39:31;;;;;;;13.27;7.13;;;24.60;51.40;;;;;;5011951;28;20034;-68
2022/05/02 09:42:14;;;;;;;13.85;7.50;;;24.60;51.30;;;;;;5014150;28;20164;-68
2022/05/02 09:51:21;;;;;;;14.10;6.88;;;24.60;51.00;;;;;;4965173;28;20045;-68
2022/05/02 09:54:11;;;;;;;12.10;7.40;;;24.60;51.30;;;;;;4984152;28;20034;-68
2022/05/02 09:56:44;;;;;;;11.43;6.60;;;24.60;51.30;;;;;;5008935;28;20709;-67
2022/05/02 09:59:22;;;;;;;9.75;7.10;;;24.70;51.30;;;;;;4983903;28;20120;-66
2022/05/02 10:01:50;;;;;;;10.05;6.53;;;24.80;51.40;;;;;;4997113;28;20022;-66
2022/05/02 10:04:31;;;;;;;9.18;6.80;;;24.70;51.20;;;;;;4983744;28;20065;-69
2022/05/02 10:07:04;;;;;;;9.50;6.72;;;24.70;51.20;;;;;;4967366;28;20480;-69
2022/05/02 10:10:06;;;;;;;10.48;6.82;;;24.70;51.20;;;;;;4983812;28;20034;-67
2022/05/02 10:12:53;;;;;;;8.73;6.43;;;24.70;51.10;;;;;;4989357;28;20029;-70
2022/05/02 10:15:46;;;;;;;10.80;6.63;;;24.70;51.10;;;;;;4998441;28;20104;-67
2022/05/02 10:18:16;;;;;;;8.73;6.30;;;24.80;51.10;;;;;;5017954;28;20318;-67
2022/05/02 10:21:03;;;;;;;11.05;6.70;;;25.00;51.20;;;;;;4983338;28;20490;-67
2022/05/02 10:24:10;;;;;;;13.45;6.60;;;24.70;51.00;;;;;;4998696;28;20366;-70
2022/05/02 10:26:44;;;;;;;10.65;6.35;;;24.70;51.00;;;;;;4978612;28;20046;-68
2022/05/02 10:29:31;;;;;;;9.87;6.23;;;24.80;51.00;;;;;;5014641;28;20043;-68
2022/05/02 10:32:02;;;;;;;8.40;6.25;;;24.80;51.00;;;;;;4967044;28;20276;-67
2022/05/02 10:34:28;;;;;;;9.23;6.18;;;24.80;50.90;;;;;;4984730;28;20580;-67
2022/05/02 10:36:54;;;;;;;7.53;5.85;;;24.80;51.00;;;;;;5015986;28;20255;-68
2022/05/02 10:39:40;;;;;;;12.00;6.43;;;24.80;51.00;;;;;;5018469;28;20038;-68
2022/05/02 10:42:07;;;;;;;9.30;6.35;;;24.80;51.00;;;;;;5012941;28;20425;-69
2022/05/02 10:44:54;;;;;;;9.10;6.70;;;24.80;51.00;;;;;;4987083;28;20026;-70
2022/05/02 10:47:20;;;;;;;9.45;6.43;;;24.80;50.80;;;;;;4984627;28;20065;-68
2022/05/02 10:49:59;;;;;;;10.93;6.60;;;25.00;50.90;;;;;;5017900;28;20509;-68
2022/05/02 10:52:46;;;;;;;11.70;6.47;;;24.80;50.90;;;;;;5006170;28;20100;-69
2022/05/02 10:55:27;;;;;;;13.70;6.45;;;24.80;50.90;;;;;;5002757;28;20195;-68
2022/05/02 10:57:53;;;;;;;11.57;6.65;;;24.80;50.80;;;;;;4984284;28;20030;-71
2022/05/02 11:00:19;;;;;;;8.57;5.70;;;25.40;51.20;;;;;;4986359;28;20540;-70
2022/05/02 11:03:22;;;;;;;10.63;5.60;;;25.50;51.00;;;;;;4996230;28;20030;-69
2022/05/02 11:06:49;;;;;;;7.30;5.32;;;24.90;50.70;;;;;;4987171;28;20030;-68
2022/05/02 11:09:20;;;;;;;11.02;6.05;;;24.90;50.60;;;;;;4933591;28;20063;-69
2022/05/02 11:11:48;;;;;;;9.95;5.88;;;24.90;50.20;;;;;;4997279;28;20034;-71
2022/05/02 11:14:35;;;;;;;9.00;6.30;;;25.00;50.20;;;;;;4986470;28;20023;-68
2022/05/02 11:17:07;;;;;;;9.40;6.03;;;25.00;50.20;;;;;;4970174;28;20034;-68
2022/05/02 11:22:39;;;;;;;8.43;5.43;;;25.00;50.60;;;;;;5010308;28;20117;-67
2022/05/02 11:25:12;;;;;;;8.85;5.93;;;24.80;50.40;;;;;;4998475;28;20395;-70
2022/05/02 11:28:15;;;;;;;7.43;5.30;;;25.00;50.50;;;;;;4982793;28;20053;-67
2022/05/02 11:30:54;;;;;;;7.45;5.30;;;25.00;50.70;;;;;;4983729;28;20088;-71
2022/05/02 11:33:39;;;;;;;8.73;5.80;;;25.00;50.70;;;;;;4984283;28;20113;-70
2022/05/02 11:36:06;;;;;;;;;;;24.90;50.50;;;;;;4983652;28;20040;-68
2022/05/02 11:38:33;;;;;;;7.95;5.63;;;24.90;50.50;;;;;;4983701;28;19913;-67
2022/05/02 11:41:10;;;;;;;9.15;5.18;;;25.10;50.80;;;;;;4999803;28;20038;-68
2022/05/02 11:43:36;;;;;;;8.23;5.53;;;25.00;50.70;;;;;;5000683;28;20045;-67
2022/05/02 11:46:10;;;;;;;6.63;5.50;;;25.00;50.60;;;;;;4986317;28;20065;-68
2022/05/02 11:48:54;;;;;;;8.57;5.10;;;25.00;50.70;;;;;;4984022;28;20082;-68
2022/05/02 11:51:50;;;;;;;8.27;5.27;;;25.10;50.70;;;;;;4985873;28;20148;-68
2022/05/02 11:54:27;;;;;;;6.70;5.20;;;25.00;50.60;;;;;;4985260;28;20300;-67
2022/05/02 11:57:17;;;;;;;6.53;5.03;;;25.00;50.60;;;;;;4984046;28;20180;-66
2022/05/02 12:00:05;;;;;;;7.88;5.20;;;25.10;50.60;;;;;;4966565;28;20037;-66
2022/05/02 12:02:33;;;;;;;7.10;5.20;;;25.00;50.60;;;;;;4984025;28;20330;-67
2022/05/02 12:05:00;;;;;;;6.78;4.85;;;25.30;50.80;;;;;;5016646;28;20542;-68
2022/05/02 12:07:30;;;;;;;7.75;5.30;;;25.10;50.60;;;;;;4998279;28;20050;-67
2022/05/02 12:10:05;;;;;;;8.45;5.30;;;25.10;50.60;;;;;;4994986;28;20409;-69
2022/05/02 12:12:31;;;;;;;7.10;5.40;;;25.10;50.60;;;;;;4979125;28;20410;-68
2022/05/02 12:15:12;;;;;;;10.23;5.78;;;25.00;50.40;;;;;;4987593;28;20030;-70
2022/05/02 12:17:50;;;;;;;7.75;5.05;;;25.10;50.70;;;;;;4976136;28;20053;-70
2022/05/02 12:20:33;;;;;;;8.00;5.20;;;25.10;50.70;;;;;;4976420;28;20521;-70
2022/05/02 12:23:02;;;;;;;7.82;5.38;;;25.10;50.70;;;;;;4978214;28;20501;-70
2022/05/02 12:25:28;;;;;;;8.05;5.35;;;25.10;50.60;;;;;;4983284;28;20472;-67
2022/05/02 12:27:57;;;;;;;7.63;5.20;;;25.20;50.50;;;;;;4975201;28;20434;-67
2022/05/02 12:30:24;;;;;;;7.55;5.20;;;25.10;50.30;;;;;;4980409;28;20437;-65
2022/05/02 12:32:50;;;;;;;7.65;5.03;;;25.10;50.40;;;;;;4981022;28;20089;-69
2022/05/02 12:35:15;;;;;;;7.97;4.93;;;25.10;50.20;;;;;;4985857;28;20638;-67
2022/05/02 12:37:42;;;;;;;5.43;4.72;;;25.20;50.50;;;;;;5002826;28;20122;-67
2022/05/02 12:40:15;;;;;;;6.78;4.88;;;25.10;50.70;;;;;;4973662;28;20030;-67
2022/05/02 12:43:05;;;;;;;7.00;4.78;;;25.10;50.60;;;;;;4979611;28;20045;-70
2022/05/02 12:45:31;;;;;;;10.85;4.65;;;25.10;50.50;;;;;;4991179;28;20467;-71
2022/05/02 12:48:00;;;;;;;6.32;4.82;;;25.10;50.30;;;;;;5001014;28;20580;-68
2022/05/02 12:50:28;;;;;;;7.10;5.13;;;25.20;50.50;;;;;;4988825;28;20057;-70
2022/05/02 12:53:05;;;;;;;7.05;5.15;;;25.70;50.50;;;;;;4972372;28;20104;-67
2022/05/02 12:55:36;;;;;;;5.82;4.43;;;25.20;49.60;;;;;;4975399;28;20065;-70
2022/05/02 13:00:48;;;;;;;9.65;5.40;;;25.20;50.20;;;;;;4970548;28;20476;-67
2022/05/02 13:03:15;;;;;;;7.32;5.00;;;25.40;50.50;;;;;;4970993;28;20042;-70
2022/05/02 13:05:48;;;;;;;6.38;4.75;;;26.00;50.90;;;;;;4979373;28;20159;-69
2022/05/02 13:08:33;;;;;;;5.88;4.63;;;25.20;50.30;;;;;;4992642;28;20070;-69
2022/05/02 13:11:09;;;;;;;6.80;4.57;;;25.00;49.80;;;;;;4977459;28;20026;-70
2022/05/02 13:13:47;;;;;;;7.00;4.43;;;25.30;49.70;;;;;;4971240;28;20046;-69
2022/05/02 13:16:15;;;;;;;6.63;4.97;;;25.30;49.80;;;;;;4972141;28;20529;-70
2022/05/02 13:18:47;;;;;;;5.63;4.25;;;25.10;50.40;;;;;;4969991;28;20037;-70
2022/05/02 13:21:13;;;;;;;6.38;4.47;;;25.30;50.00;;;;;;4977236;28;20044;-69
2022/05/02 13:23:46;;;;;;;5.55;4.53;;;25.30;50.60;;;;;;4973165;28;20517;-69
2022/05/02 13:26:27;;;;;;;7.25;4.35;;;25.30;50.10;;;;;;4971842;28;20050;-69
2022/05/02 13:29:04;;;;;;;5.90;4.35;;;25.40;50.20;;;;;;4984599;28;20582;-69
2022/05/02 13:31:42;;;;;;;6.68;4.28;;;25.40;50.00;;;;;;4972782;28;20069;-69
2022/05/02 13:34:10;;;;;;;6.68;4.50;;;25.20;50.10;;;;;;4972758;28;20072;-68
2022/05/02 13:36:42;;;;;;;4.97;4.22;;;25.40;50.00;;;;;;4990119;28;20418;-69
2022/05/02 13:39:10;;;;;;;6.90;4.63;;;25.40;49.90;;;;;;4969756;28;20088;-69
2022/05/02 13:41:51;;;;;;;7.05;4.25;;;25.40;49.70;;;;;;4970126;28;20105;-69
2022/05/02 13:44:30;;;;;;;6.75;4.28;;;25.40;49.50;;;;;;4975325;28;20042;-69
2022/05/02 13:46:59;;;;;;;4.93;4.47;;;25.40;49.60;;;;;;4988110;28;20045;-69
2022/05/02 13:53:18;;;;;;;7.50;4.40;;;25.40;49.60;;;;;;4972263;28;20049;-69
2022/05/02 13:55:58;;;;;;;6.53;4.70;;;25.40;48.90;;;;;;4997586;28;20050;-69
2022/05/02 13:58:53;;;;;;;7.47;4.45;;;25.40;48.80;;;;;;4997511;28;20030;-69
2022/05/02 14:01:43;;;;;;;5.68;4.47;;;25.40;49.20;;;;;;4964897;28;20078;-69
2022/05/02 14:04:35;;;;;;;5.72;4.32;;;25.40;50.20;;;;;;4955197;28;20047;-69
2022/05/02 14:09:43;;;;;;;6.05;4.82;;;25.40;50.30;;;;;;4984523;28;20042;-68
2022/05/02 14:12:18;;;;;;;5.82;3.97;;;25.40;50.60;;;;;;4982335;28;20045;-68
2022/05/02 14:14:54;;;;;;;;;;;25.40;50.40;;;;;;4974092;28;20022;-68
2022/05/02 14:20:23;;;;;;;5.55;4.25;;;25.70;50.50;;;;;;4976353;28;20117;-69
2022/05/02 14:22:58;;;;;;;5.32;4.15;;;25.40;50.60;;;;;;4978608;28;20031;-69
2022/05/02 14:25:40;;;;;;;6.15;4.45;;;25.60;50.80;;;;;;4972364;28;20042;-69
2022/05/02 14:28:06;;;;;;;5.72;4.40;;;25.40;50.20;;;;;;4979642;28;20513;-67
2022/05/02 14:30:36;;;;;;;7.00;4.63;;;25.40;50.80;;;;;;4970237;28;20030;-68
2022/05/02 14:33:01;;;;;;;4.63;4.15;;;25.40;50.80;;;;;;4971773;28;20038;-68
2022/05/02 14:35:29;;;;;;;6.45;4.40;;;26.20;51.30;;;;;;4987788;28;20392;-69
2022/05/02 14:37:56;;;;;;;5.95;4.50;;;25.40;50.00;;;;;;4976121;28;20141;-69
2022/05/02 14:40:22;;;;;;;5.55;4.20;;;25.40;49.90;;;;;;4972173;28;20026;-69
2022/05/02 14:42:49;;;;;;;4.35;3.92;;;25.40;50.50;;;;;;4976410;28;20061;-68
2022/05/02 14:45:15;;;;;;;5.97;4.72;;;26.10;51.30;;;;;;4989313;28;20180;-68
2022/05/02 14:47:41;;;;;;;4.35;3.88;;;25.40;51.50;;;;;;4974215;28;20190;-68
2022/05/02 14:50:08;;;;;;;4.60;4.03;;;25.40;50.90;;;;;;4972303;28;20486;-68
2022/05/02 14:52:35;;;;;;;4.75;3.30;;;25.40;50.80;;;;;;4979089;28;20398;-69
2022/05/02 14:55:01;;;;;;;4.50;4.10;;;25.40;50.80;;;;;;4987582;28;20050;-68
2022/05/02 14:57:26;;;;;;;4.55;4.07;;;25.40;50.80;;;;;;5001033;28;20031;-69
2022/05/02 14:59:55;;;;;;;4.47;3.55;;;25.40;50.80;;;;;;4969604;28;20026;-69
2022/05/02 15:02:23;;;;;;;6.15;3.75;;;25.40;50.70;;;;;;4976088;28;20043;-69
2022/05/02 15:04:49;;;;;;;6.20;4.25;;;25.40;50.90;;;;;;5014889;28;20121;-69
2022/05/02 15:07:14;;;;;;;5.07;3.80;;;25.40;50.80;;;;;;5010860;28;20123;-68
2022/05/02 15:12:48;;;;;;;4.78;3.50;;;25.40;50.80;;;;;;4970537;28;20091;-69
2022/05/02 15:15:23;;;;;;;4.57;4.00;;;25.40;50.90;;;;;;4979748;28;20222;-68
2022/05/02 15:17:56;;;;;;;;;;;25.70;50.30;;;;;;4977082;28;20081;-68
2022/05/02 15:20:29;;;;;;;4.50;3.90;;;25.40;50.90;;;;;;4985810;28;20353;-68
2022/05/02 15:22:57;;;;;;;4.38;3.72;;;25.40;50.30;;;;;;4980177;28;20038;-68
2022/05/02 15:25:23;;;;;;;4.75;3.63;;;25.40;50.90;;;;;;4982619;28;20041;-68
2022/05/02 15:39:21;;;;;;;4.63;3.72;;;25.40;50.90;;;;;;4971506;28;20680;-69
2022/05/02 15:41:46;;;;;;;3.92;3.40;;;26.30;51.60;;;;;;4971015;28;20113;-69
2022/05/02 15:44:22;;;;;;;4.63;3.90;;;25.40;51.00;;;;;;4972889;28;20572;-69
2022/05/02 15:47:01;;;;;;;4.32;3.75;;;25.40;50.90;;;;;;4980667;28;20137;-70
2022/05/02 15:49:28;;;;;;;4.32;3.92;;;25.40;50.90;;;;;;4975739;28;20525;-69
2022/05/02 15:52:08;;;;;;;6.03;4.03;;;25.40;50.40;;;;;;4988736;28;20707;-70
2022/05/02 15:54:35;;;;;;;4.35;3.72;;;25.40;50.60;;;;;;4980083;28;20449;-69
2022/05/02 15:57:01;;;;;;;4.45;3.63;;;25.60;51.00;;;;;;4975821;28;20030;-69
2022/05/02 15:59:40;;;;;;;4.68;4.03;;;25.60;51.00;;;;;;4973265;28;20033;-70
2022/05/02 16:02:09;;;;;;;4.90;3.60;;;25.40;50.80;;;;;;4966345;28;20046;-69
2022/05/02 16:04:36;;;;;;;4.97;4.03;;;25.40;50.80;;;;;;4975504;28;20136;-70
2022/05/02 16:10:29;;;;;;;4.38;3.70;;;25.40;50.10;;;;;;4976276;28;20206;-68
2022/05/02 16:12:45;;;;;;;5.13;3.67;;;25.70;51.00;;;;;;4973940;28;20041;-68
2022/05/02 16:15:13;;;;;;;4.30;3.20;;;25.40;50.80;;;;;;4971402;28;20053;-69
2022/05/02 16:17:48;;;;;;;3.85;3.45;;;25.60;51.00;;;;;;4984134;28;20638;-68
2022/05/02 16:20:14;;;;;;;4.55;4.03;;;25.40;50.80;;;;;;4993041;28;20040;-69
2022/05/02 16:22:40;;;;;;;4.45;3.90;;;25.40;49.90;;;;;;4996482;28;20034;-70
2022/05/02 16:25:13;;;;;;;5.53;3.78;;;25.40;50.10;;;;;;4963214;28;20058;-70
2022/05/02 16:27:39;;;;;;;4.47;3.88;;;25.40;50.60;;;;;;4966928;28;20054;-69
2022/05/02 16:30:07;;;;;;;5.28;3.85;;;25.40;50.70;;;;;;4971153;28;20069;-67
2022/05/02 16:32:41;;;;;;;4.43;3.35;;;25.40;50.90;;;;;;4971700;28;20054;-68
2022/05/02 16:35:09;;;;;;;5.97;3.40;;;25.50;50.80;;;;;;4980044;28;20041;-71
2022/05/02 16:37:36;;;;;;;5.40;4.05;;;25.60;50.50;;;;;;4953316;28;20056;-80
2022/05/02 16:40:03;;;;;;;4.80;3.92;;;25.50;49.40;;;;;;4996682;28;20045;-75
2022/05/02 16:42:29;;;;;;;6.70;3.75;;;25.60;49.40;;;;;;4967109;28;20049;-75
2022/05/02 16:45:00;;;;;;;4.30;3.63;;;25.70;49.30;;;;;;4971705;28;20026;-74
2022/05/02 16:47:26;;;;;;;4.00;3.60;;;25.50;50.30;;;;;;5008884;28;20050;-77
2022/05/02 16:49:52;;;;;;;4.63;3.50;;;25.50;49.30;;;;;;4974566;28;20109;-77
2022/05/02 16:52:18;;;;;;;5.75;4.10;;;25.70;49.50;;;;;;4966357;28;20696;-72
2022/05/02 16:54:46;;;;;;;5.45;3.72;;;25.50;49.10;;;;;;4987200;28;20112;-76
2022/05/02 16:57:12;;;;;;;4.05;3.70;;;25.50;49.50;;;;;;4966930;28;20205;-73
2022/05/02 16:59:37;;;;;;;7.82;4.22;;;25.50;49.40;;;;;;4975647;28;20038;-74
2022/05/02 17:02:08;;;;;;;4.68;3.70;;;25.40;48.80;;;;;;4988728;28;20124;-74
2022/05/02 17:04:42;;;;;;;4.25;3.40;;;25.80;49.90;;;;;;5003870;28;20034;-74
2022/05/02 17:07:08;;;;;;;4.00;3.40;;;25.40;48.80;;;;;;4997802;28;20041;-73
2022/05/02 17:09:33;;;;;;;4.68;3.70;;;25.60;50.50;;;;;;4968863;28;20560;-76
2022/05/02 17:11:59;;;;;;;4.50;3.67;;;25.40;50.50;;;;;;4988945;28;20483;-79
2022/05/02 17:14:24;;;;;;;4.50;3.30;;;25.90;49.30;;;;;;4996922;28;20061;-79
2022/05/02 17:16:50;;;;;;;4.07;3.67;;;25.50;49.20;;;;;;4973784;28;20054;-73
2022/05/02 17:19:19;;;;;;;5.30;3.38;;;25.40;48.90;;;;;;4977713;28;20030;-82
2022/05/02 17:22:03;;;;;;;5.13;3.42;;;25.40;49.00;;;;;;4982757;28;20041;-74
2022/05/02 17:24:43;;;;;;;5.22;3.50;;;25.40;49.80;;;;;;4973454;28;20358;-73
2022/05/02 17:27:09;;;;;;;5.20;3.60;;;25.40;50.20;;;;;;4974303;28;20103;-73
2022/05/02 17:29:41;;;;;;;4.10;3.40;;;25.80;49.50;;;;;;4984197;28;20046;-78
2022/05/02 17:32:08;;;;;;;4.68;3.75;;;25.40;49.90;;;;;;4973198;28;20026;-81
2022/05/02 17:34:40;;;;;;;4.82;3.35;;;25.60;49.10;;;;;;4961463;28;20537;-78
2022/05/02 17:37:06;;;;;;;4.25;3.28;;;25.50;50.30;;;;;;4974949;28;20538;-74
2022/05/02 17:39:34;;;;;;;3.53;3.22;;;25.40;50.20;;;;;;4971695;28;20252;-75
2022/05/02 17:42:05;;;;;;;3.13;2.85;;;26.30;51.10;;;;;;4975360;28;20036;-75
2022/05/02 17:44:40;;;;;;;5.07;4.00;;;25.40;50.00;;;;;;4977612;28;20042;-80
2022/05/02 17:47:09;;;;;;;5.57;4.15;;;25.40;50.50;;;;;;4962499;28;20034;-75
2022/05/02 17:49:39;;;;;;;5.15;3.88;;;25.90;51.00;;;;;;4978596;28;20061;-81
2022/05/02 17:52:11;;;;;;;4.60;3.40;;;25.40;50.00;;;;;;4980178;28;20582;-76
2022/05/02 17:54:44;;;;;;;4.15;3.28;;;25.30;50.50;;;;;;5008883;28;20046;-75
2022/05/02 17:57:09;;;;;;;4.70;3.78;;;25.30;49.30;;;;;;4977575;28;20039;-74
2022/05/02 17:59:35;;;;;;;5.00;3.35;;;25.40;49.30;;;;;;4978165;28;20054;-73
2022/05/02 18:02:04;;;;;;;4.13;3.72;;;25.60;49.30;;;;;;4977333;28;20030;-73
2022/05/02 18:04:30;;;;;;;4.72;3.22;;;25.30;50.10;;;;;;4979256;28;20058;-77
2022/05/02 18:07:12;;;;;;;3.65;3.20;;;25.30;49.50;;;;;;4992759;28;20038;-80
2022/05/02 18:09:39;;;;;;;3.80;3.40;;;25.30;49.20;;;;;;4979132;28;20642;-73
2022/05/02 18:12:25;;;;;;;5.22;3.58;;;25.20;50.00;;;;;;4993879;28;20031;-74
2022/05/02 18:15:05;;;;;;;3.60;3.28;;;25.30;49.60;;;;;;4990986;28;20061;-74
2022/05/02 18:17:42;;;;;;;3.60;3.30;;;25.40;50.10;;;;;;5011900;28;20061;-73
2022/05/02 18:20:17;;;;;;;3.78;3.25;;;25.70;50.70;;;;;;4976397;28;20933;-73
2022/05/02 18:22:43;;;;;;;;;;;25.20;49.30;;;;;;4981150;28;20235;-73
2022/05/02 18:25:09;;;;;;;3.58;3.08;;;25.20;50.30;;;;;;4978232;28;20380;-75
2022/05/02 18:27:38;;;;;;;3.83;3.10;;;25.20;50.30;;;;;;4980676;28;20134;-72
2022/05/02 18:30:04;;;;;;;4.35;3.00;;;25.20;50.50;;;;;;4976824;28;20116;-76
2022/05/02 18:32:31;;;;;;;3.67;3.35;;;25.20;50.60;;;;;;5011305;28;20060;-76
2022/05/02 18:38:04;;;;;;;3.95;3.45;;;25.20;50.60;;;;;;4978454;28;20100;-74
2022/05/02 18:40:37;;;;;;;3.53;3.15;;;25.20;50.50;;;;;;4978471;28;20030;-74
2022/05/02 18:53:13;;;;;;;4.43;3.30;;;25.20;50.50;;;;;;5054446;28;20036;-73
2022/05/02 18:55:53;;;;;;;6.93;3.50;;;25.00;50.40;;;;;;5046776;28;20649;-73
2022/05/02 18:58:19;;;;;;;6.53;3.40;;;25.10;50.40;;;;;;5047440;28;20048;-73
2022/05/02 19:00:45;;;;;;;3.60;3.13;;;26.20;51.20;;;;;;5045240;28;20083;-72
2022/05/02 19:03:11;;;;;;;3.97;3.60;;;25.20;50.60;;;;;;5041812;28;20112;-72
2022/05/02 19:05:37;;;;;;;3.90;3.50;;;25.20;50.50;;;;;;5050303;28;20276;-73
2022/05/02 19:08:16;;;;;;;5.40;3.85;;;25.00;50.40;;;;;;5044556;28;20680;-72
2022/05/02 19:10:42;;;;;;;4.82;3.50;;;25.10;50.50;;;;;;5043314;28;20320;-73
2022/05/02 19:13:07;;;;;;;4.18;2.92;;;25.10;50.50;;;;;;5047433;28;20026;-73
2022/05/02 19:15:34;;;;;;;3.53;3.22;;;25.10;50.50;;;;;;5045102;28;20476;-73
2022/05/02 19:17:59;;;;;;;5.45;3.70;;;25.20;50.60;;;;;;5039631;28;20064;-73
2022/05/02 19:20:27;;;;;;;4.25;3.50;;;25.50;50.80;;;;;;5033049;28;20541;-73
2022/05/02 19:22:52;;;;;;;4.68;3.60;;;25.00;50.60;;;;;;5034032;28;20033;-73
2022/05/02 19:25:28;;;;;;;4.50;3.60;;;25.00;50.50;;;;;;5042810;28;20036;-73
2022/05/02 19:27:54;;;;;;;4.50;3.75;;;25.00;50.50;;;;;;5034879;28;20397;-73
2022/05/02 19:30:20;;;;;;;3.63;3.30;;;25.00;50.50;;;;;;5032448;28;20033;-73
2022/05/02 19:32:46;;;;;;;3.67;3.30;;;25.00;50.60;;;;;;5034930;28;20511;-73
2022/05/02 19:40:44;;;;;;;3.30;2.97;;;25.00;50.60;;;;;;5051858;28;20040;-74
2022/05/02 19:43:15;;;;;;;4.35;3.30;;;25.00;50.70;;;;;;5027858;28;20404;-73
2022/05/02 19:45:40;;;;;;;4.28;3.75;;;25.00;50.70;;;;;;5034307;28;20348;-72
2022/05/02 19:48:15;;;;;;;3.97;3.20;;;25.00;50.80;;;;;;5037940;28;20036;-72
2022/05/02 19:50:41;;;;;;;4.05;3.30;;;24.90;50.70;;;;;;5010762;28;20173;-73
2022/05/02 19:53:08;;;;;;;3.83;3.30;;;24.90;50.70;;;;;;5024196;28;20094;-73
2022/05/02 19:55:34;;;;;;;4.07;3.15;;;24.90;50.70;;;;;;5038092;28;20415;-73
2022/05/02 19:57:59;;;;;;;3.65;3.35;;;24.60;50.60;;;;;;5031671;28;20042;-73
2022/05/02 20:00:25;;;;;;;3.95;3.50;;;25.20;51.00;;;;;;5016789;28;20026;-73
2022/05/02 20:02:51;;;;;;;4.03;3.63;;;24.90;50.80;;;;;;5006912;28;20041;-73
2022/05/02 20:05:17;;;;;;;4.05;3.40;;;24.90;50.80;;;;;;5028227;28;20021;-73
2022/05/02 20:07:45;;;;;;;4.97;3.50;;;24.90;50.80;;;;;;5013757;28;20410;-73
2022/05/02 20:10:11;;;;;;;4.18;3.25;;;24.90;50.90;;;;;;5030086;28;20033;-73
2022/05/02 20:12:39;;;;;;;3.50;3.20;;;24.90;50.90;;;;;;5009167;28;20048;-72
2022/05/02 20:15:06;;;;;;;5.03;3.38;;;24.80;50.80;;;;;;5011787;28;20025;-72
2022/05/02 20:17:31;;;;;;;3.40;3.10;;;24.80;50.80;;;;;;5009114;28;20128;-73